createdAt,value
2022-08-25T00:02:37.940Z,3.40
2022-08-25T00:05:32.251Z,3.58
2022-08-25T00:08:23.557Z,3.30
2022-08-25T00:11:17.669Z,2.95
2022-08-25T00:14:14.907Z,3.00
2022-08-25T00:17:06.007Z,3.03
2022-08-25T00:19:55.886Z,3.25
2022-08-25T00:22:46.354Z,3.35
2022-08-25T00:25:36.568Z,3.55
2022-08-25T00:28:26.974Z,3.50
2022-08-25T00:31:20.430Z,3.45
2022-08-25T00:34:16.962Z,3.10
2022-08-25T00:37:09.396Z,3.42
2022-08-25T00:39:59.470Z,3.45
2022-08-25T00:42:49.828Z,3.60
2022-08-25T00:45:40.561Z,3.50
2022-08-25T00:48:30.952Z,3.78
2022-08-25T00:51:30.140Z,3.78
2022-08-25T00:54:25.208Z,4.07
2022-08-25T00:57:18.165Z,3.72
2022-08-25T01:00:22.290Z,3.38
2022-08-25T01:03:13.208Z,3.63
2022-08-25T01:06:05.051Z,4.18
2022-08-25T01:08:55.207Z,4.70
2022-08-25T01:11:46.678Z,4.57
2022-08-25T01:14:37.841Z,4.63
2022-08-25T01:17:45.413Z,4.57
2022-08-25T01:20:35.730Z,4.68
2022-08-25T01:23:26.439Z,4.32
2022-08-25T01:26:21.316Z,4.78
2022-08-25T01:29:20.988Z,5.22
2022-08-25T01:32:13.307Z,5.25
2022-08-25T01:35:04.011Z,4.53
2022-08-25T01:37:54.241Z,4.68
2022-08-25T01:40:44.744Z,4.85
2022-08-25T01:43:38.976Z,4.80
2022-08-25T01:46:28.971Z,5.50
2022-08-25T01:49:19.458Z,5.35
2022-08-25T01:52:34.068Z,4.97
2022-08-25T01:55:24.714Z,4.43
2022-08-25T01:58:15.158Z,4.93
2022-08-25T02:01:09.826Z,4.63
2022-08-25T02:03:59.914Z,5.53
2022-08-25T02:06:50.234Z,5.65
2022-08-25T02:09:40.310Z,5.38
2022-08-25T02:12:35.197Z,5.75
2022-08-25T02:15:25.788Z,5.40
2022-08-25T02:18:15.825Z,5.75
2022-08-25T02:21:06.129Z,5.65
2022-08-25T02:23:56.944Z,5.43
2022-08-25T02:26:46.861Z,5.18
2022-08-25T02:29:36.975Z,5.30
2022-08-25T02:32:27.747Z,5.50
2022-08-25T02:35:17.886Z,6.07
2022-08-25T02:38:07.836Z,5.85
2022-08-25T02:40:59.578Z,6.00
2022-08-25T02:43:50.626Z,5.82
2022-08-25T02:46:40.987Z,5.30
2022-08-25T02:49:32.072Z,5.10
2022-08-25T02:52:22.140Z,5.25
2022-08-25T02:55:14.249Z,5.68
2022-08-25T02:58:04.737Z,5.07
2022-08-25T03:00:56.559Z,4.75
2022-08-25T03:03:48.323Z,5.47
2022-08-25T03:06:38.584Z,5.40
2022-08-25T03:09:28.615Z,5.80
2022-08-25T03:12:18.547Z,5.43
2022-08-25T03:15:13.175Z,5.80
2022-08-25T03:18:05.444Z,5.63
2022-08-25T03:20:59.044Z,5.28
2022-08-25T03:23:49.019Z,6.05
2022-08-25T03:26:54.422Z,5.90
2022-08-25T03:29:45.485Z,6.07
2022-08-25T03:32:35.644Z,6.53
2022-08-25T03:35:26.191Z,5.80
2022-08-25T03:38:16.928Z,5.47
2022-08-25T03:41:35.387Z,5.47
2022-08-25T03:44:25.606Z,5.60
2022-08-25T03:47:16.197Z,5.72
2022-08-25T03:50:09.610Z,7.07
2022-08-25T03:53:00.199Z,6.95
2022-08-25T03:55:50.784Z,6.15
2022-08-25T03:58:40.707Z,6.28
2022-08-25T04:01:31.277Z,6.68
2022-08-25T04:04:21.509Z,7.18
2022-08-25T04:07:11.716Z,6.70
2022-08-25T04:10:02.251Z,6.90
2022-08-25T04:12:52.440Z,7.28
2022-08-25T04:15:43.907Z,7.03
2022-08-25T04:18:34.317Z,6.32
2022-08-25T04:21:26.067Z,6.22
2022-08-25T04:24:16.185Z,6.85
2022-08-25T04:27:06.475Z,6.72
2022-08-25T04:29:56.894Z,6.30
2022-08-25T04:32:51.008Z,6.65
2022-08-25T04:35:47.527Z,6.45
2022-08-25T04:38:39.662Z,6.88
2022-08-25T04:41:30.171Z,6.80
2022-08-25T04:44:20.328Z,6.68
2022-08-25T04:47:11.019Z,5.97
2022-08-25T04:50:01.400Z,7.00
2022-08-25T04:52:51.295Z,6.35
2022-08-25T04:55:46.480Z,6.82
2022-08-25T04:58:37.981Z,6.55
2022-08-25T05:01:28.487Z,6.93
2022-08-25T05:04:28.280Z,6.70
2022-08-25T05:07:18.920Z,6.35
2022-08-25T05:10:09.308Z,6.60
2022-08-25T05:12:59.423Z,6.32
2022-08-25T05:15:58.255Z,6.68
2022-08-25T05:18:51.044Z,6.43
2022-08-25T05:21:41.333Z,6.78
2022-08-25T05:24:31.469Z,6.68
2022-08-25T05:27:22.322Z,7.45
2022-08-25T05:30:13.782Z,7.20
2022-08-25T05:33:04.057Z,7.68
2022-08-25T05:35:54.472Z,7.75
2022-08-25T05:38:44.694Z,7.63
2022-08-25T05:41:35.268Z,7.68
2022-08-25T05:44:25.312Z,7.90
2022-08-25T05:47:15.208Z,8.30
2022-08-25T05:50:05.875Z,7.43
2022-08-25T05:52:55.933Z,7.22
2022-08-25T05:55:46.552Z,6.57
2022-08-25T05:58:38.085Z,6.93
2022-08-25T06:01:48.465Z,7.78
2022-08-25T06:04:41.283Z,8.57
2022-08-25T06:07:31.590Z,7.97
2022-08-25T06:10:22.010Z,8.98
2022-08-25T06:13:11.933Z,8.60
2022-08-25T06:16:03.319Z,8.15
2022-08-25T06:18:53.755Z,9.18
2022-08-25T06:21:44.410Z,9.35
2022-08-25T06:24:34.362Z,9.45
2022-08-25T06:27:24.460Z,9.07
2022-08-25T06:30:20.210Z,9.00
2022-08-25T06:33:15.529Z,8.63
2022-08-25T06:36:06.509Z,9.50
2022-08-25T06:38:56.724Z,9.63
2022-08-25T06:41:51.884Z,9.18
2022-08-25T06:44:41.928Z,9.43
2022-08-25T06:47:32.038Z,10.38
2022-08-25T06:50:22.054Z,10.65
2022-08-25T06:53:13.090Z,9.85
2022-08-25T06:56:06.768Z,9.27
2022-08-25T06:58:57.207Z,8.82
2022-08-25T07:01:49.733Z,9.38
2022-08-25T07:04:40.152Z,9.35
2022-08-25T07:07:44.142Z,9.32
2022-08-25T07:10:34.292Z,8.18
2022-08-25T07:13:26.599Z,8.20
2022-08-25T07:16:18.379Z,8.88
2022-08-25T07:19:09.627Z,9.40
2022-08-25T07:22:05.182Z,9.88
2022-08-25T07:24:55.265Z,10.45
2022-08-25T07:27:46.012Z,7.68
2022-08-25T07:30:36.031Z,7.70
2022-08-25T07:33:26.328Z,7.68
2022-08-25T07:36:17.858Z,7.47
2022-08-25T07:39:07.925Z,7.72
2022-08-25T07:41:58.527Z,7.40
2022-08-25T07:44:48.640Z,7.38
2022-08-25T07:47:38.888Z,7.28
2022-08-25T07:50:31.270Z,6.82
2022-08-25T07:53:22.375Z,6.85
2022-08-25T07:56:16.545Z,7.13
2022-08-25T07:59:08.010Z,6.75
2022-08-25T08:02:03.133Z,6.40
2022-08-25T08:04:53.835Z,6.30
2022-08-25T08:07:44.442Z,6.28
2022-08-25T08:11:00.603Z,5.65
2022-08-25T08:13:50.809Z,4.95
2022-08-25T08:16:40.983Z,5.00
2022-08-25T08:19:32.431Z,5.32
2022-08-25T08:22:22.426Z,5.35
2022-08-25T08:25:17.450Z,4.80
2022-08-25T08:28:11.635Z,5.22
2022-08-25T08:31:02.125Z,4.45
2022-08-25T08:33:55.014Z,5.43
2022-08-25T08:36:45.325Z,5.38
2022-08-25T08:39:37.365Z,5.05
2022-08-25T08:42:47.000Z,5.13
2022-08-25T08:45:44.163Z,4.45
2022-08-25T08:49:01.822Z,4.80
2022-08-25T08:51:59.413Z,4.20
2022-08-25T08:55:00.901Z,4.70
2022-08-25T08:57:53.338Z,4.97
2022-08-25T09:00:52.713Z,4.20
2022-08-25T09:03:47.035Z,4.65
2022-08-25T09:06:48.222Z,4.35
2022-08-25T09:09:41.965Z,4.43
2022-08-25T09:16:31.939Z,4.43
2022-08-25T09:19:31.402Z,4.55
2022-08-25T09:22:40.809Z,4.40
2022-08-25T09:26:01.989Z,4.35
2022-08-25T09:29:16.567Z,4.57
2022-08-25T09:32:08.805Z,4.03
2022-08-25T09:35:02.489Z,4.70
2022-08-25T09:37:58.474Z,4.97
2022-08-25T09:40:54.226Z,3.83
2022-08-25T09:43:54.227Z,4.20
2022-08-25T09:47:02.289Z,4.00
2022-08-25T09:50:01.492Z,3.65
2022-08-25T09:52:54.675Z,3.85
2022-08-25T09:55:48.330Z,3.90
2022-08-25T09:58:38.394Z,3.90
2022-08-25T10:01:28.909Z,3.88
2022-08-25T10:04:37.057Z,3.60
2022-08-25T10:07:36.906Z,3.72
2022-08-25T10:10:34.485Z,3.63
2022-08-25T10:13:43.842Z,3.60
2022-08-25T10:16:36.486Z,3.67
2022-08-25T10:19:29.322Z,3.28
2022-08-25T10:22:24.307Z,3.97
2022-08-25T10:25:18.415Z,4.22
2022-08-25T10:28:27.189Z,3.83
2022-08-25T10:31:41.526Z,3.65
2022-08-25T10:34:54.563Z,3.88
2022-08-25T10:38:07.619Z,3.80
2022-08-25T10:41:15.546Z,3.70
2022-08-25T10:44:50.837Z,3.85
2022-08-25T10:48:02.157Z,4.03
2022-08-25T10:51:34.384Z,4.00
2022-08-25T10:54:29.398Z,4.03
2022-08-25T10:57:36.119Z,3.85
2022-08-25T11:00:48.187Z,3.58
2022-08-25T11:03:51.325Z,4.50
2022-08-25T11:06:54.680Z,3.73
2022-08-25T11:09:49.599Z,3.50
2022-08-25T11:12:51.909Z,3.65
2022-08-25T11:16:15.494Z,3.70
2022-08-25T11:19:20.962Z,4.10
2022-08-25T11:22:43.776Z,3.92
2022-08-25T11:25:45.906Z,3.55
2022-08-25T11:28:54.394Z,3.60
2022-08-25T11:31:52.362Z,4.25
2022-08-25T11:34:43.973Z,4.13
2022-08-25T11:37:38.140Z,3.60
2022-08-25T11:40:44.427Z,3.67
2022-08-25T11:43:55.612Z,3.60
2022-08-25T11:47:00.494Z,3.30
2022-08-25T11:49:58.846Z,3.17
2022-08-25T11:52:56.404Z,3.55
2022-08-25T11:55:51.043Z,3.72
2022-08-25T11:58:43.589Z,3.53
2022-08-25T12:01:40.474Z,2.80
2022-08-25T12:04:44.821Z,3.10
2022-08-25T12:07:48.315Z,3.15
2022-08-25T12:11:11.260Z,2.97
2022-08-25T12:14:17.353Z,3.05
2022-08-25T12:17:26.324Z,3.42
2022-08-25T12:20:16.507Z,3.33
2022-08-25T12:23:08.119Z,3.70
2022-08-25T12:26:04.896Z,3.03
2022-08-25T12:29:08.069Z,3.00
2022-08-25T12:32:14.420Z,3.25
2022-08-25T12:35:19.237Z,3.15
2022-08-25T12:38:16.994Z,3.30
2022-08-25T12:41:13.424Z,3.50
2022-08-25T12:44:42.845Z,2.80
2022-08-25T12:47:35.129Z,3.03
2022-08-25T12:50:36.582Z,3.08
2022-08-25T12:53:38.229Z,3.10
2022-08-25T12:56:47.595Z,2.90
2022-08-25T12:59:44.679Z,2.80
2022-08-25T13:02:51.637Z,2.95
2022-08-25T13:05:45.178Z,2.72
2022-08-25T13:09:04.031Z,2.92
2022-08-25T13:12:17.687Z,2.70
2022-08-25T13:15:14.293Z,2.85
2022-08-25T13:18:13.689Z,2.97
2022-08-25T13:21:07.248Z,3.40
2022-08-25T13:24:04.649Z,2.90
2022-08-25T13:26:59.540Z,3.00
2022-08-25T13:29:52.982Z,3.10
2022-08-25T13:32:43.680Z,3.13
2022-08-25T13:35:33.991Z,2.60
2022-08-25T13:38:24.011Z,3.00
2022-08-25T13:41:19.537Z,2.80
2022-08-25T13:44:13.259Z,2.40
2022-08-25T13:47:09.873Z,2.92
2022-08-25T13:50:30.732Z,3.20
2022-08-25T13:53:26.370Z,3.20
2022-08-25T13:56:25.695Z,2.70
2022-08-25T13:59:31.169Z,2.83
2022-08-25T14:02:49.752Z,2.90
2022-08-25T14:05:42.766Z,2.70
2022-08-25T14:08:36.397Z,2.60
2022-08-25T14:11:42.857Z,2.90
2022-08-25T14:14:35.136Z,2.75
2022-08-25T14:17:38.718Z,2.65
2022-08-25T14:20:33.835Z,2.13
2022-08-25T14:23:27.328Z,2.03
2022-08-25T14:26:17.385Z,2.30
2022-08-25T14:29:08.112Z,2.13
2022-08-25T14:32:01.029Z,2.65
2022-08-25T14:34:52.227Z,2.53
2022-08-25T14:37:42.364Z,2.50
2022-08-25T14:40:34.447Z,2.83
2022-08-25T14:43:32.003Z,2.80
2022-08-25T14:46:27.193Z,3.28
2022-08-25T14:49:24.817Z,2.60
2022-08-25T14:52:22.537Z,2.60
2022-08-25T14:55:13.579Z,2.40
2022-08-25T14:58:26.029Z,2.80
2022-08-25T15:01:18.320Z,2.70
2022-08-25T15:04:26.668Z,2.67
2022-08-25T15:07:35.615Z,2.67
2022-08-25T15:10:29.674Z,2.40
2022-08-25T15:13:21.434Z,2.70
2022-08-25T15:16:22.803Z,2.63
2022-08-25T15:19:16.146Z,2.97
2022-08-25T15:22:06.472Z,2.50
2022-08-25T15:24:57.105Z,2.83
2022-08-25T15:27:51.985Z,2.65
2022-08-25T15:30:45.041Z,2.53
2022-08-25T15:33:35.923Z,2.58
2022-08-25T15:36:27.059Z,2.83
2022-08-25T15:39:19.155Z,2.33
2022-08-25T15:42:12.191Z,2.92
2022-08-25T15:45:02.723Z,2.80
2022-08-25T15:47:55.316Z,2.47
2022-08-25T15:50:47.278Z,3.00
2022-08-25T15:53:37.825Z,2.67
2022-08-25T15:56:27.611Z,2.05
2022-08-25T15:59:18.813Z,2.30
2022-08-25T16:02:15.182Z,2.28
2022-08-25T16:05:08.136Z,2.40
2022-08-25T16:07:58.767Z,2.65
2022-08-25T16:10:49.663Z,2.17
2022-08-25T16:13:39.944Z,2.63
2022-08-25T16:16:33.012Z,2.97
2022-08-25T16:19:23.843Z,2.50
2022-08-25T16:22:14.469Z,2.40
2022-08-25T16:25:04.863Z,2.60
2022-08-25T16:27:56.517Z,2.60
2022-08-25T16:30:52.672Z,2.35
2022-08-25T16:33:45.947Z,2.75
2022-08-25T16:36:36.709Z,2.83
2022-08-25T16:39:27.443Z,2.53
2022-08-25T16:42:17.943Z,2.53
2022-08-25T16:45:08.261Z,2.40
2022-08-25T16:47:59.225Z,2.70
2022-08-25T16:50:49.677Z,2.45
2022-08-25T16:53:59.837Z,2.67
2022-08-25T16:56:54.748Z,2.58
2022-08-25T16:59:45.623Z,2.78
2022-08-25T17:02:35.566Z,2.22
2022-08-25T17:05:27.756Z,2.63
2022-08-25T17:08:30.759Z,2.80
2022-08-25T17:11:25.957Z,2.47
2022-08-25T17:14:19.073Z,2.55
2022-08-25T17:17:09.703Z,3.20
2022-08-25T17:20:00.921Z,2.33
2022-08-25T17:22:55.448Z,2.80
2022-08-25T17:25:45.837Z,2.78
2022-08-25T17:28:36.461Z,2.33
2022-08-25T17:31:28.418Z,3.70
2022-08-25T17:34:22.950Z,3.28
2022-08-25T17:37:13.452Z,2.80
2022-08-25T17:40:06.571Z,2.50
2022-08-25T17:42:57.141Z,2.63
2022-08-25T17:45:48.506Z,2.88
2022-08-25T17:48:43.875Z,2.45
2022-08-25T17:51:34.454Z,2.92
2022-08-25T17:54:24.963Z,2.70
2022-08-25T17:57:16.120Z,2.63
2022-08-25T18:00:10.360Z,2.65
2022-08-25T18:03:01.844Z,2.90
2022-08-25T18:05:52.897Z,2.83
2022-08-25T18:08:52.324Z,2.60
2022-08-25T18:11:45.467Z,2.60
2022-08-25T18:14:35.337Z,2.53
2022-08-25T18:17:26.538Z,2.92
2022-08-25T18:20:20.736Z,3.03
2022-08-25T18:23:12.697Z,2.85
2022-08-25T18:26:02.778Z,3.00
2022-08-25T18:28:53.674Z,2.75
2022-08-25T18:31:45.831Z,2.72
2022-08-25T18:34:38.460Z,2.55
2022-08-25T18:37:47.601Z,2.55
2022-08-25T18:40:38.059Z,2.60
2022-08-25T18:43:31.326Z,2.85
2022-08-25T18:46:24.300Z,2.80
2022-08-25T18:49:17.115Z,3.00
2022-08-25T18:52:08.013Z,2.67
2022-08-25T18:54:59.296Z,3.15
2022-08-25T18:57:50.164Z,2.90
2022-08-25T19:00:42.091Z,3.10
2022-08-25T19:03:32.609Z,3.20
2022-08-25T19:06:23.490Z,2.85
2022-08-25T19:09:13.795Z,3.45
2022-08-25T19:12:06.399Z,2.60
2022-08-25T19:15:02.035Z,3.03
2022-08-25T19:17:56.912Z,3.67
2022-08-25T19:20:47.625Z,3.20
2022-08-25T19:23:39.007Z,3.10
2022-08-25T19:26:30.537Z,3.83
2022-08-25T19:29:20.955Z,3.20
2022-08-25T19:32:12.701Z,3.47
2022-08-25T19:35:02.824Z,3.08
2022-08-25T19:37:55.529Z,2.95
2022-08-25T19:40:47.031Z,3.20
2022-08-25T19:43:38.693Z,3.25
2022-08-25T19:46:35.807Z,4.20
2022-08-25T19:49:31.733Z,3.40
2022-08-25T19:52:24.881Z,3.03
2022-08-25T19:55:17.289Z,3.63
2022-08-25T19:58:07.085Z,3.30
2022-08-25T20:00:58.408Z,3.42
2022-08-25T20:03:48.688Z,3.22
2022-08-25T20:06:41.229Z,3.10
2022-08-25T20:09:39.517Z,3.65
2022-08-25T20:12:30.877Z,3.72
2022-08-25T20:15:21.367Z,3.60
2022-08-25T20:18:14.028Z,3.83
2022-08-25T20:21:05.035Z,3.15
2022-08-25T20:24:14.369Z,3.85
2022-08-25T20:27:05.205Z,3.63
2022-08-25T20:29:55.587Z,3.30
2022-08-25T20:32:46.860Z,3.55
2022-08-25T20:35:36.977Z,3.95
2022-08-25T20:38:29.756Z,5.10
2022-08-25T20:41:19.911Z,4.10
2022-08-25T20:44:10.471Z,3.72
2022-08-25T20:47:10.077Z,3.83
2022-08-25T20:50:03.368Z,3.75
2022-08-25T20:52:58.647Z,3.42
2022-08-25T20:55:49.862Z,4.20
2022-08-25T20:58:42.211Z,4.15
2022-08-25T21:01:39.737Z,4.20
2022-08-25T21:04:30.906Z,3.90
2022-08-25T21:07:23.835Z,3.63
2022-08-25T21:10:15.337Z,4.13
2022-08-25T21:13:05.993Z,4.45
2022-08-25T21:15:56.586Z,4.05
2022-08-25T21:18:48.155Z,4.05
2022-08-25T21:21:40.092Z,3.78
2022-08-25T21:24:30.553Z,4.07
2022-08-25T21:27:20.664Z,4.38
2022-08-25T21:30:14.151Z,4.25
2022-08-25T21:33:04.868Z,4.45
2022-08-25T21:35:55.129Z,4.43
2022-08-25T21:38:46.550Z,4.20
2022-08-25T21:41:42.723Z,3.92
2022-08-25T21:44:33.459Z,4.65
2022-08-25T21:47:23.854Z,4.50
2022-08-25T21:50:13.834Z,4.30
2022-08-25T21:53:06.035Z,4.07
2022-08-25T21:55:58.368Z,4.63
2022-08-25T21:58:49.089Z,4.18
2022-08-25T22:01:40.150Z,3.88
2022-08-25T22:04:32.029Z,4.22
2022-08-25T22:07:24.775Z,4.25
2022-08-25T22:10:17.760Z,4.18
2022-08-25T22:13:08.704Z,4.57
2022-08-25T22:15:58.953Z,4.55
2022-08-25T22:18:50.217Z,4.75
2022-08-25T22:21:42.808Z,4.85
2022-08-25T22:24:32.927Z,4.70
2022-08-25T22:27:23.442Z,4.80
2022-08-25T22:30:14.380Z,4.78
2022-08-25T22:33:06.626Z,4.47
2022-08-25T22:35:59.727Z,5.13
2022-08-25T22:38:52.059Z,4.80
2022-08-25T22:41:43.006Z,5.20
2022-08-25T22:44:33.137Z,4.40
2022-08-25T22:47:23.185Z,4.88
2022-08-25T22:50:13.992Z,5.25
2022-08-25T22:53:07.763Z,4.80
2022-08-25T22:56:01.940Z,5.03
2022-08-25T22:58:53.330Z,4.85
2022-08-25T23:01:45.090Z,4.70
2022-08-25T23:04:41.162Z,4.90
2022-08-25T23:07:35.692Z,4.97
2022-08-25T23:10:26.334Z,4.57
2022-08-25T23:13:34.493Z,5.00
2022-08-25T23:16:25.141Z,5.00
2022-08-25T23:19:16.350Z,5.25
2022-08-25T23:22:10.361Z,4.90
2022-08-25T23:25:00.864Z,5.80
2022-08-25T23:27:53.300Z,5.35
2022-08-25T23:30:44.794Z,5.55
2022-08-25T23:33:35.647Z,5.03
2022-08-25T23:36:25.829Z,5.22
2022-08-25T23:39:16.199Z,5.45
2022-08-25T23:42:07.147Z,5.60
2022-08-25T23:44:57.589Z,5.72
2022-08-25T23:47:49.709Z,5.47
2022-08-25T23:50:45.926Z,5.15
2022-08-25T23:53:36.669Z,5.20
2022-08-25T23:56:26.576Z,5.55
2022-08-25T23:59:23.929Z,5.40
